Martic Forge, Pennsylvania
Current Conditions -  °F | °C
As of 12:53 AM on Saturday 25 Oct 2014 (Local Time) from KLNS Reporting Station
Clear Clear  
Wind Chill: 47°   Ceiling: Unl
Heat Index: 49°   Visibility: 10mi
Dew Point: 38°   Wind: 6mph
Humidity: 66%   Direction: 260°W
Pressure: 29.92"   Gusts: NA
Location:  39.9024°N, 76.3233°W
Report Text: KLNS 250453Z AUTO 26005KT 10SM CLR 09/03 A2992 RMK AO2 SLP132 T00940033 401890072
Loading
Personal Weather Stations






























Interactive Weather Map
Tropical Storm Tracking
New forecast layout! Learn more

10-Day Weather Forecast

Advertisements
Track Severe Weather on mobile